Time;durP1;ratioP1;P1;durP2;ratioP2;P2;SDS_P1;SDS_P2;PMS_P1;PMS_P2;Temp;Humidity;BMP_temperature;BMP_pressure;BME280_temperature;BME280_humidity;BME280_pressure;Samples;Min_cycle;Max_cycle;Signal;HPM_P1;HPM_P2
2021/06/27 04:00:43;;;;;;;11.67;10.73;;;16.50;99.90;;;;;;5879404;23;20577;-67
2021/06/27 04:03:10;;;;;;;12.70;11.60;;;16.60;99.90;;;;;;4975262;28;20460;-67
2021/06/27 04:05:37;;;;;;;12.53;11.43;;;16.70;99.90;;;;;;4975362;28;20479;-67
2021/06/27 04:08:04;;;;;;;13.30;11.80;;;16.80;99.90;;;;;;4975284;28;20475;-67
2021/06/27 04:10:30;;;;;;;13.17;12.10;;;16.90;99.90;;;;;;4969922;28;20591;-67
2021/06/27 04:12:57;;;;;;;12.10;11.10;;;17.10;99.90;;;;;;4955388;29;20464;-67
2021/06/27 04:15:24;;;;;;;12.60;11.60;;;17.30;99.90;;;;;;4955698;29;20461;-67
2021/06/27 04:17:51;;;;;;;13.53;12.30;;;17.50;99.90;;;;;;4955666;29;20976;-67
2021/06/27 04:20:18;;;;;;;11.63;10.70;;;17.60;99.90;;;;;;4955656;28;20468;-67
2021/06/27 04:22:45;;;;;;;11.90;10.73;;;17.80;99.90;;;;;;4955936;29;20484;-67
2021/06/27 04:25:12;;;;;;;12.67;11.57;;;17.90;99.90;;;;;;4954860;29;20476;-67
2021/06/27 04:27:39;;;;;;;11.33;10.53;;;18.20;99.90;;;;;;4955145;29;20476;-67
2021/06/27 04:30:07;;;;;;;11.33;10.53;;;18.40;99.90;;;;;;4955774;29;20464;-67
2021/06/27 04:32:34;;;;;;;11.27;10.40;;;18.50;99.90;;;;;;4954963;29;20469;-67
2021/06/27 04:35:02;;;;;;;11.50;10.50;;;18.40;99.90;;;;;;4955238;29;20461;-67
2021/06/27 04:37:29;;;;;;;20.40;18.90;;;18.40;99.90;;;;;;4955574;29;20917;-67
2021/06/27 04:39:56;;;;;;;11.60;10.43;;;18.40;99.90;;;;;;4955926;29;20461;-67
2021/06/27 04:42:22;;;;;;;10.63;9.83;;;18.60;99.90;;;;;;4955845;28;20488;-68
2021/06/27 04:44:49;;;;;;;10.87;10.07;;;18.70;99.90;;;;;;4956519;29;20956;-67
2021/06/27 04:47:16;;;;;;;11.37;10.53;;;19.10;99.90;;;;;;4956312;29;20461;-68
2021/06/27 04:49:42;;;;;;;11.23;10.43;;;19.60;99.90;;;;;;4952341;29;20473;-68
2021/06/27 04:52:11;;;;;;;12.53;11.43;;;19.80;99.90;;;;;;4953812;28;20489;-67
2021/06/27 04:54:38;;;;;;;10.60;9.80;;;19.70;99.90;;;;;;4954662;28;20944;-67
2021/06/27 04:57:06;;;;;;;10.80;10.10;;;19.90;99.90;;;;;;4955167;29;20468;-68
2021/06/27 04:59:33;;;;;;;11.07;10.27;;;19.90;99.90;;;;;;4946900;29;20511;-68
2021/06/27 05:01:59;;;;;;;11.03;10.13;;;20.00;99.90;;;;;;4955201;28;20508;-68
2021/06/27 05:04:26;;;;;;;11.73;10.73;;;20.10;99.90;;;;;;4955033;29;20465;-67
2021/06/27 05:06:53;;;;;;;11.40;10.40;;;20.10;99.90;;;;;;4955815;29;20464;-67
2021/06/27 05:09:21;;;;;;;10.60;10.00;;;19.80;99.90;;;;;;4954372;29;20471;-67
2021/06/27 05:11:47;;;;;;;11.47;10.57;;;19.60;99.90;;;;;;4936035;29;20489;-67
2021/06/27 05:14:14;;;;;;;10.93;10.10;;;19.30;99.90;;;;;;4936175;29;20469;-67
2021/06/27 05:16:41;;;;;;;10.20;9.60;;;19.30;99.90;;;;;;4954985;29;20475;-67
2021/06/27 05:19:07;;;;;;;10.47;9.70;;;19.50;99.90;;;;;;4955108;29;20580;-67
2021/06/27 05:21:34;;;;;;;10.37;9.67;;;20.00;99.90;;;;;;4955067;28;20492;-67
2021/06/27 05:24:01;;;;;;;10.97;9.87;;;20.20;99.90;;;;;;4955766;29;20475;-67
2021/06/27 05:26:29;;;;;;;11.17;10.33;;;20.40;99.90;;;;;;4955197;29;20460;-67
2021/06/27 05:28:56;;;;;;;11.00;10.30;;;20.40;99.90;;;;;;4955540;29;20471;-68
2021/06/27 05:31:23;;;;;;;10.90;10.00;;;20.50;99.90;;;;;;4954178;28;20531;-67
2021/06/27 05:33:49;;;;;;;11.53;10.63;;;20.60;99.90;;;;;;4954256;29;20480;-67
2021/06/27 05:36:16;;;;;;;10.70;10.00;;;20.40;99.90;;;;;;4954211;29;20803;-67
2021/06/27 05:38:43;;;;;;;11.40;10.60;;;20.40;99.90;;;;;;4954920;29;20575;-67
2021/06/27 05:41:10;;;;;;;10.70;10.00;;;20.40;99.90;;;;;;4954205;28;20485;-67
2021/06/27 05:43:38;;;;;;;13.07;12.07;;;20.40;99.90;;;;;;4954247;29;20508;-67
2021/06/27 05:46:05;;;;;;;11.13;10.20;;;20.40;99.90;;;;;;4954459;29;20456;-67
2021/06/27 05:48:32;;;;;;;10.73;9.93;;;20.40;99.90;;;;;;4951886;29;20465;-67
2021/06/27 05:50:58;;;;;;;10.97;10.17;;;20.30;99.90;;;;;;4953103;28;20488;-67
2021/06/27 05:53:25;;;;;;;10.43;9.63;;;20.30;99.90;;;;;;4952689;29;20983;-67
2021/06/27 05:56:08;;;;;;;11.27;10.37;;;20.50;99.90;;;;;;4953822;29;20461;-67
2021/06/27 05:58:37;;;;;;;10.30;9.67;;;20.50;99.90;;;;;;4955429;29;20476;-67
2021/06/27 06:01:05;;;;;;;11.97;11.07;;;20.70;99.90;;;;;;4955717;28;20867;-68
2021/06/27 06:03:32;;;;;;;12.33;11.27;;;20.90;99.90;;;;;;4957632;29;20464;-68
2021/06/27 06:05:59;;;;;;;10.60;9.90;;;21.00;99.90;;;;;;4957148;28;20575;-68
2021/06/27 06:08:25;;;;;;;10.97;9.87;;;21.10;99.90;;;;;;4960708;29;20980;-68
2021/06/27 06:10:52;;;;;;;10.63;9.83;;;21.10;99.90;;;;;;4958617;28;20511;-68
2021/06/27 06:13:19;;;;;;;10.87;9.97;;;20.80;99.90;;;;;;4958641;29;20484;-68
2021/06/27 06:15:46;;;;;;;11.60;10.60;;;20.30;99.90;;;;;;4958276;29;20464;-67
2021/06/27 06:18:14;;;;;;;10.97;10.17;;;20.30;99.90;;;;;;4958636;29;20998;-67
2021/06/27 06:20:40;;;;;;;11.67;10.73;;;20.50;99.90;;;;;;4958406;28;20572;-67
2021/06/27 06:23:07;;;;;;;10.40;9.70;;;20.90;99.90;;;;;;4958651;29;20472;-68
2021/06/27 06:25:34;;;;;;;10.23;9.63;;;21.60;99.90;;;;;;4957591;29;20830;-68
2021/06/27 06:28:01;;;;;;;9.80;9.10;;;22.50;99.90;;;;;;4957910;29;20465;-68
2021/06/27 06:30:27;;;;;;;8.90;8.30;;;23.10;99.90;;;;;;4957542;28;20495;-68
2021/06/27 06:32:54;;;;;;;8.70;8.23;;;23.00;99.90;;;;;;4957978;29;20460;-68
2021/06/27 06:35:22;;;;;;;8.83;8.13;;;22.80;99.90;;;;;;4957683;29;20457;-68
2021/06/27 06:37:49;;;;;;;9.27;8.47;;;22.50;99.90;;;;;;4948151;29;20469;-69
2021/06/27 06:40:16;;;;;;;8.70;8.20;;;22.40;99.90;;;;;;4946147;28;20468;-68
2021/06/27 06:42:42;;;;;;;9.10;8.60;;;22.50;99.90;;;;;;4956972;29;20460;-67
2021/06/27 06:45:10;;;;;;;7.77;7.37;;;22.50;99.90;;;;;;4957120;29;20472;-68
2021/06/27 06:47:36;;;;;;;8.97;8.27;;;22.30;99.90;;;;;;4957900;29;20468;-68
2021/06/27 06:50:04;;;;;;;9.33;8.73;;;22.30;99.90;;;;;;4957387;29;20467;-67
2021/06/27 06:52:32;;;;;;;8.60;8.10;;;22.50;99.90;;;;;;4957183;28;20504;-68
2021/06/27 06:54:59;;;;;;;10.13;9.37;;;22.70;99.90;;;;;;4956917;29;20457;-69
2021/06/27 06:57:25;;;;;;;8.93;8.33;;;22.90;99.90;;;;;;4957125;29;20483;-69
2021/06/27 06:59:52;;;;;;;9.27;8.47;;;23.10;99.90;;;;;;4957154;29;20481;-69
2021/06/27 07:02:19;;;;;;;9.60;8.90;;;23.10;99.90;;;;;;4956736;28;20496;-67
2021/06/27 07:04:45;;;;;;;8.30;7.80;;;22.90;99.90;;;;;;4956962;29;20484;-66
2021/06/27 07:07:12;;;;;;;7.57;7.07;;;23.20;99.90;;;;;;4957590;29;20471;-66
2021/06/27 07:09:40;;;;;;;7.83;7.33;;;23.60;99.90;;;;;;4956733;29;20471;-66
2021/06/27 07:12:08;;;;;;;8.13;7.73;;;24.10;99.90;;;;;;4956116;28;20849;-66
2021/06/27 07:14:35;;;;;;;8.30;7.80;;;24.40;99.90;;;;;;4956593;29;20480;-66
2021/06/27 07:17:01;;;;;;;7.90;7.50;;;24.90;99.90;;;;;;4957435;29;20810;-66
2021/06/27 07:19:28;;;;;;;9.13;8.43;;;25.10;99.90;;;;;;4956071;29;20993;-66
2021/06/27 07:21:55;;;;;;;9.30;8.47;;;25.60;99.90;;;;;;4956636;28;21009;-68
2021/06/27 07:24:21;;;;;;;7.50;7.20;;;25.80;99.90;;;;;;4955799;29;20466;-68
2021/06/27 07:26:49;;;;;;;9.07;8.53;;;25.70;99.90;;;;;;4951608;29;20479;-69
2021/06/27 07:29:16;;;;;;;7.90;7.50;;;26.10;99.90;;;;;;4955232;29;20467;-68
2021/06/27 07:31:43;;;;;;;9.43;8.80;;;26.50;99.90;;;;;;4956847;28;20486;-68
2021/06/27 07:34:09;;;;;;;9.07;8.47;;;26.60;99.90;;;;;;4956475;29;20479;-69
2021/06/27 07:36:36;;;;;;;8.40;7.90;;;26.60;99.90;;;;;;4956377;29;20492;-68
2021/06/27 07:39:04;;;;;;;7.60;7.20;;;27.30;99.90;;;;;;4955988;29;20485;-70
2021/06/27 07:41:30;;;;;;;7.63;7.27;;;27.90;99.90;;;;;;4956337;28;20506;-70
2021/06/27 07:43:58;;;;;;;7.97;7.37;;;28.10;99.90;;;;;;4956087;29;20472;-70
2021/06/27 07:46:25;;;;;;;7.47;7.17;;;28.60;99.90;;;;;;4957074;29;20813;-70
2021/06/27 07:48:52;;;;;;;7.63;7.23;;;29.10;99.90;;;;;;4956972;29;20803;-70
2021/06/27 07:51:18;;;;;;;7.73;7.43;;;29.10;99.90;;;;;;4956343;28;20504;-70
2021/06/27 07:53:45;;;;;;;7.50;7.20;;;29.20;99.90;;;;;;4955941;29;20468;-70
2021/06/27 07:56:12;;;;;;;8.40;7.93;;;29.60;99.90;;;;;;4955632;29;20465;-69
2021/06/27 07:58:39;;;;;;;9.17;8.67;;;30.00;99.70;;;;;;4955241;29;20984;-69
2021/06/27 08:01:07;;;;;;;10.27;9.77;;;30.20;98.10;;;;;;4953861;28;20496;-69
2021/06/27 08:03:33;;;;;;;8.80;8.40;;;30.10;97.60;;;;;;4953300;29;20465;-70
2021/06/27 08:06:00;;;;;;;8.70;8.20;;;29.90;97.30;;;;;;4953748;29;20983;-69
2021/06/27 08:08:27;;;;;;;9.63;9.13;;;29.90;98.00;;;;;;4952572;29;20469;-69
2021/06/27 08:10:54;;;;;;;9.23;8.83;;;29.90;97.50;;;;;;4953798;28;20507;-69
2021/06/27 08:13:20;;;;;;;10.80;9.90;;;30.00;97.10;;;;;;4936066;29;20480;-69
2021/06/27 08:15:47;;;;;;;10.30;9.70;;;30.00;96.20;;;;;;4952819;29;20470;-69
2021/06/27 08:18:15;;;;;;;8.60;8.20;;;30.10;96.60;;;;;;4955817;29;20461;-69
2021/06/27 08:20:43;;;;;;;10.50;9.90;;;30.20;97.00;;;;;;4954665;28;20484;-69
2021/06/27 08:23:10;;;;;;;9.70;9.10;;;30.40;96.50;;;;;;4954892;29;20607;-69
2021/06/27 08:25:37;;;;;;;9.33;8.93;;;30.30;95.70;;;;;;4954195;29;20487;-69
2021/06/27 08:28:04;;;;;;;9.67;9.10;;;30.40;95.40;;;;;;4953737;29;20501;-67
2021/06/27 08:30:32;;;;;;;9.13;8.73;;;30.30;95.40;;;;;;4954092;28;20485;-69
2021/06/27 08:32:58;;;;;;;11.20;10.60;;;30.20;95.00;;;;;;4951488;29;20477;-69
2021/06/27 08:35:26;;;;;;;10.23;9.60;;;29.90;94.60;;;;;;4950517;29;20476;-65
2021/06/27 08:37:53;;;;;;;10.03;9.30;;;29.70;94.90;;;;;;4954431;29;20477;-66
2021/06/27 08:40:21;;;;;;;8.87;8.47;;;29.60;95.20;;;;;;4954757;28;20481;-66
2021/06/27 08:42:49;;;;;;;7.73;7.13;;;29.70;95.60;;;;;;4945414;29;20472;-66
2021/06/27 08:45:17;;;;;;;7.10;6.77;;;29.70;94.50;;;;;;4953756;29;20471;-66
2021/06/27 08:47:44;;;;;;;8.37;7.90;;;29.70;94.10;;;;;;4950584;29;21098;-68
2021/06/27 08:50:13;;;;;;;6.87;6.57;;;29.70;94.40;;;;;;4939499;28;20460;-68
2021/06/27 08:52:43;;;;;;;6.40;6.10;;;29.70;93.30;;;;;;4950144;29;20474;-68
2021/06/27 08:55:11;;;;;;;5.87;5.67;;;29.60;93.00;;;;;;4952273;29;20456;-68
2021/06/27 08:57:39;;;;;;;5.90;5.70;;;30.00;92.60;;;;;;4953421;29;20468;-66
2021/06/27 09:00:08;;;;;;;5.33;5.23;;;30.00;92.00;;;;;;4953868;29;20497;-69
2021/06/27 09:02:34;;;;;;;5.90;5.80;;;29.90;93.00;;;;;;4951926;29;20483;-69
2021/06/27 09:05:02;;;;;;;5.83;5.63;;;30.00;93.00;;;;;;4951541;29;20820;-67
2021/06/27 09:07:30;;;;;;;5.20;5.10;;;30.00;93.40;;;;;;4953014;29;20969;-67
2021/06/27 09:10:04;;;;;;;6.47;6.27;;;29.90;93.10;;;;;;4953385;29;20464;-66
2021/06/27 09:12:49;;;;;;;7.20;6.90;;;29.60;93.20;;;;;;4953591;28;20508;-66
2021/06/27 09:15:34;;;;;;;7.30;7.00;;;29.30;93.10;;;;;;4952723;29;20479;-68
2021/06/27 09:18:06;;;;;;;7.60;7.20;;;29.20;93.00;;;;;;4954830;29;20448;-67
2021/06/27 09:20:33;;;;;;;7.03;6.73;;;29.10;93.70;;;;;;4953589;28;20550;-67
2021/06/27 09:22:59;;;;;;;8.00;7.70;;;28.80;94.60;;;;;;4954994;29;20907;-67
2021/06/27 09:25:29;;;;;;;8.47;8.00;;;28.50;95.30;;;;;;4952819;29;20482;-70
2021/06/27 09:28:02;;;;;;;8.10;7.70;;;28.40;95.50;;;;;;4947577;29;20506;-67
2021/06/27 09:30:31;;;;;;;9.30;8.73;;;28.70;95.00;;;;;;4953887;28;20829;-67
2021/06/27 09:33:02;;;;;;;7.63;7.33;;;28.70;94.50;;;;;;4952202;29;20982;-68
2021/06/27 09:35:54;;;;;;;8.10;7.70;;;28.70;94.50;;;;;;4954076;29;20463;-68
2021/06/27 09:38:27;;;;;;;8.37;7.87;;;28.20;94.80;;;;;;4953095;29;20882;-70
2021/06/27 09:40:57;;;;;;;8.90;8.47;;;28.20;95.40;;;;;;4953537;28;20496;-68
2021/06/27 09:43:25;;;;;;;7.53;7.23;;;28.00;95.30;;;;;;4953718;29;20470;-69
2021/06/27 09:45:56;;;;;;;7.83;7.43;;;27.90;96.10;;;;;;4954048;29;20471;-69
2021/06/27 09:48:23;;;;;;;7.87;7.37;;;28.00;95.60;;;;;;4953499;29;20489;-69
2021/06/27 09:50:50;;;;;;;8.57;8.17;;;28.00;95.70;;;;;;4953472;28;20489;-68
2021/06/27 09:53:37;;;;;;;8.93;8.43;;;27.80;95.60;;;;;;4953896;29;20809;-68
2021/06/27 09:56:07;;;;;;;8.80;8.30;;;27.70;96.00;;;;;;4953305;29;20477;-68
2021/06/27 09:58:35;;;;;;;9.17;8.57;;;27.60;96.10;;;;;;4953510;29;20473;-68
2021/06/27 10:01:02;;;;;;;7.73;7.33;;;27.40;96.30;;;;;;4953879;28;20494;-68
2021/06/27 10:03:30;;;;;;;8.23;7.73;;;27.20;96.50;;;;;;4953996;29;20471;-69
2021/06/27 10:06:07;;;;;;;8.27;7.67;;;27.10;96.30;;;;;;4954216;29;20477;-69
2021/06/27 10:08:34;;;;;;;8.00;7.50;;;27.00;96.90;;;;;;4953489;29;20606;-67
2021/06/27 10:11:15;;;;;;;8.30;7.70;;;27.20;96.00;;;;;;4951986;28;20501;-67
2021/06/27 10:13:43;;;;;;;8.50;7.93;;;27.40;96.40;;;;;;4951981;28;20476;-67
2021/06/27 10:16:14;;;;;;;7.47;6.97;;;27.30;96.30;;;;;;4953738;28;20796;-67
2021/06/27 10:18:42;;;;;;;7.57;7.10;;;27.20;96.30;;;;;;4948580;28;20528;-67
2021/06/27 10:21:09;;;;;;;7.60;7.10;;;27.20;96.60;;;;;;4952745;28;20658;-67
2021/06/27 10:23:36;;;;;;;7.63;7.13;;;27.00;95.90;;;;;;4950024;28;20846;-67
2021/06/27 10:26:04;;;;;;;8.87;8.27;;;26.80;95.90;;;;;;4949491;29;20471;-67
2021/06/27 10:28:34;;;;;;;7.40;7.00;;;27.00;96.90;;;;;;4953776;29;20497;-67
2021/06/27 10:31:01;;;;;;;7.53;7.13;;;27.00;97.20;;;;;;4952774;28;20485;-67
2021/06/27 10:33:28;;;;;;;8.10;7.53;;;27.00;97.30;;;;;;4951282;29;20489;-67
2021/06/27 10:35:55;;;;;;;7.13;6.67;;;27.20;96.40;;;;;;4958732;29;20470;-67
2021/06/27 10:38:26;;;;;;;6.77;6.47;;;27.10;96.00;;;;;;4961414;29;20474;-67
2021/06/27 10:40:55;;;;;;;7.40;7.00;;;27.10;96.20;;;;;;4961662;28;20502;-67
2021/06/27 10:43:23;;;;;;;7.37;6.97;;;27.20;95.80;;;;;;4962279;29;20794;-66
2021/06/27 10:46:01;;;;;;;6.97;6.67;;;27.20;96.70;;;;;;4954952;29;21017;-67
2021/06/27 10:48:40;;;;;;;7.70;7.10;;;27.20;97.30;;;;;;4943795;29;20495;-67
2021/06/27 10:51:10;;;;;;;6.60;6.30;;;27.30;96.60;;;;;;4950276;28;20493;-67
2021/06/27 10:54:13;;;;;;;7.10;6.70;;;27.30;96.70;;;;;;4954224;28;20509;-66
2021/06/27 10:57:02;;;;;;;6.60;6.30;;;27.20;96.50;;;;;;4955792;29;20495;-66
2021/06/27 11:00:00;;;;;;;7.20;6.90;;;27.00;96.60;;;;;;4949999;29;21020;-69
2021/06/27 11:02:39;;;;;;;6.80;6.40;;;27.10;96.70;;;;;;4943857;29;20969;-69
2021/06/27 11:05:43;;;;;;;6.07;5.77;;;27.30;96.80;;;;;;4952816;29;20569;-68
2021/06/27 11:08:28;;;;;;;6.37;5.97;;;27.20;96.80;;;;;;4954809;28;20467;-68
2021/06/27 11:11:00;;;;;;;5.40;5.20;;;27.30;96.50;;;;;;4954958;28;20487;-67
2021/06/27 11:13:27;;;;;;;4.70;4.60;;;27.00;95.80;;;;;;4955202;29;20465;-67
2021/06/27 11:16:21;;;;;;;6.47;6.17;;;26.70;95.90;;;;;;4952426;29;20476;-69
2021/06/27 11:18:51;;;;;;;5.90;5.60;;;26.50;97.30;;;;;;4944078;29;20827;-69
2021/06/27 11:21:21;;;;;;;6.30;5.90;;;26.30;97.70;;;;;;4956145;28;20583;-69
2021/06/27 11:24:06;;;;;;;6.33;6.03;;;26.30;97.20;;;;;;4953888;29;20469;-69
2021/06/27 11:27:06;;;;;;;9.10;8.40;;;26.10;98.20;;;;;;4949609;29;20477;-69
2021/06/27 11:29:42;;;;;;;7.87;7.37;;;26.20;99.90;;;;;;4952981;29;20492;-69
2021/06/27 11:32:40;;;;;;;8.40;7.93;;;26.40;99.40;;;;;;4955594;28;20516;-69
2021/06/27 11:35:09;;;;;;;7.30;6.90;;;26.60;99.70;;;;;;4953676;29;20981;-69
2021/06/27 11:37:44;;;;;;;7.43;7.03;;;26.80;98.50;;;;;;4955735;29;20461;-69
2021/06/27 11:40:11;;;;;;;7.10;6.60;;;26.80;98.30;;;;;;4954974;28;20495;-69
2021/06/27 11:42:51;;;;;;;5.87;5.57;;;27.00;98.30;;;;;;4955354;29;20477;-68
2021/06/27 11:45:50;;;;;;;6.90;6.50;;;27.30;97.00;;;;;;4942749;29;20465;-69
2021/06/27 11:48:18;;;;;;;7.27;6.87;;;27.20;96.60;;;;;;4937256;29;20811;-69
2021/06/27 11:50:54;;;;;;;5.60;5.40;;;27.30;96.80;;;;;;4950506;28;20493;-69
2021/06/27 11:53:26;;;;;;;7.00;6.70;;;27.30;96.30;;;;;;4955390;29;20453;-69
2021/06/27 11:56:12;;;;;;;6.60;6.30;;;27.40;95.70;;;;;;4948380;29;20471;-69
2021/06/27 11:58:39;;;;;;;6.30;6.00;;;27.60;96.00;;;;;;4949578;29;20475;-69
2021/06/27 12:01:11;;;;;;;6.10;5.70;;;27.60;95.90;;;;;;4952108;28;20500;-67
2021/06/27 12:03:48;;;;;;;5.40;5.13;;;27.70;96.30;;;;;;4954387;28;20474;-69
2021/06/27 12:06:16;;;;;;;6.10;5.80;;;28.10;95.80;;;;;;4944796;29;20482;-69
2021/06/27 12:08:44;;;;;;;6.23;5.83;;;28.00;96.00;;;;;;4951419;29;20924;-69
2021/06/27 12:11:11;;;;;;;5.90;5.70;;;27.90;96.50;;;;;;4953296;28;20584;-69
2021/06/27 12:13:39;;;;;;;6.30;6.00;;;27.80;96.00;;;;;;4955073;29;20994;-70
2021/06/27 12:16:06;;;;;;;5.87;5.67;;;27.60;96.00;;;;;;4953273;29;21048;-67
2021/06/27 12:18:36;;;;;;;5.90;5.70;;;27.50;96.10;;;;;;4955024;29;20484;-67
2021/06/27 12:21:07;;;;;;;6.00;5.50;;;27.50;95.90;;;;;;4953434;28;20495;-67
2021/06/27 12:23:38;;;;;;;5.60;5.40;;;27.40;96.20;;;;;;4945914;29;20464;-67
2021/06/27 12:26:06;;;;;;;5.63;5.33;;;27.50;95.50;;;;;;4953266;29;20950;-67
2021/06/27 12:28:36;;;;;;;5.17;4.97;;;27.60;95.40;;;;;;4954326;28;20476;-67
2021/06/27 12:31:08;;;;;;;5.20;4.90;;;27.90;95.70;;;;;;4942624;28;20492;-67
2021/06/27 12:33:37;;;;;;;5.27;5.07;;;28.00;94.90;;;;;;4953914;29;20508;-67
2021/06/27 12:36:07;;;;;;;5.27;5.07;;;27.90;94.90;;;;;;4948778;29;20518;-67
2021/06/27 12:38:36;;;;;;;5.60;5.40;;;27.80;95.70;;;;;;4953513;29;20478;-67
2021/06/27 12:41:06;;;;;;;5.63;5.43;;;27.70;95.30;;;;;;4953628;28;20913;-67
2021/06/27 12:43:36;;;;;;;5.50;5.30;;;27.70;95.70;;;;;;4949650;29;20467;-67
2021/06/27 12:46:10;;;;;;;5.70;5.50;;;27.70;95.60;;;;;;4951453;29;20493;-67
2021/06/27 12:48:37;;;;;;;6.23;6.00;;;27.80;95.40;;;;;;4940964;29;20499;-67
2021/06/27 12:51:05;;;;;;;5.60;5.40;;;27.90;95.30;;;;;;4954472;28;20492;-67
2021/06/27 12:53:31;;;;;;;4.90;4.70;;;27.80;95.50;;;;;;4951216;29;20490;-67
2021/06/27 12:56:08;;;;;;;5.50;5.20;;;27.70;95.00;;;;;;4950892;28;20590;-67
2021/06/27 12:58:55;;;;;;;5.90;5.70;;;27.80;95.70;;;;;;4954627;28;20472;-67
2021/06/27 13:01:23;;;;;;;5.83;5.63;;;27.80;94.90;;;;;;4953268;28;20504;-67
2021/06/27 13:03:59;;;;;;;5.90;5.60;;;28.00;95.00;;;;;;4954046;28;20473;-67
2021/06/27 13:06:26;;;;;;;5.87;5.57;;;28.20;94.50;;;;;;4954290;29;20474;-69
2021/06/27 13:09:14;;;;;;;5.40;5.20;;;28.00;94.20;;;;;;4954713;29;20475;-68
2021/06/27 13:12:11;;;;;;;5.43;5.23;;;27.90;94.40;;;;;;4949248;28;20997;-71
2021/06/27 13:14:39;;;;;;;4.43;4.33;;;28.00;94.70;;;;;;4953586;29;20480;-69
2021/06/27 13:17:07;;;;;;;4.60;4.50;;;27.90;93.90;;;;;;4952620;28;20835;-69
2021/06/27 13:19:36;;;;;;;4.63;4.37;;;28.00;93.50;;;;;;4953488;29;20492;-68
2021/06/27 13:22:13;;;;;;;5.43;5.23;;;28.10;93.30;;;;;;4939525;29;20492;-70
2021/06/27 13:25:02;;;;;;;5.00;4.80;;;28.10;92.90;;;;;;4953186;29;20479;-70
2021/06/27 13:27:30;;;;;;;5.00;4.80;;;28.10;93.60;;;;;;4949443;29;20468;-69
2021/06/27 13:30:12;;;;;;;5.60;5.30;;;28.10;94.30;;;;;;4953911;28;20473;-70
2021/06/27 13:32:40;;;;;;;5.77;5.57;;;28.20;93.90;;;;;;4932844;29;20516;-67
2021/06/27 13:35:28;;;;;;;6.27;6.00;;;28.30;94.70;;;;;;4950219;29;20485;-67
2021/06/27 13:37:55;;;;;;;5.90;5.30;;;28.40;94.30;;;;;;4952208;29;20469;-67
2021/06/27 13:40:21;;;;;;;6.00;5.70;;;28.30;93.90;;;;;;4953573;28;20603;-67
2021/06/27 13:42:49;;;;;;;6.97;6.50;;;28.20;93.90;;;;;;4952198;29;20482;-68
2021/06/27 13:45:18;;;;;;;6.30;5.90;;;28.20;94.10;;;;;;4953121;29;20466;-67
2021/06/27 13:47:45;;;;;;;6.93;6.23;;;28.00;94.30;;;;;;4951996;29;20501;-67
2021/06/27 13:50:12;;;;;;;8.77;6.50;;;28.30;95.10;;;;;;4952869;28;20470;-67
2021/06/27 13:52:40;;;;;;;6.37;6.00;;;28.50;94.50;;;;;;4953555;29;20465;-67
2021/06/27 13:55:08;;;;;;;6.43;6.13;;;28.40;94.40;;;;;;4951411;29;20474;-67
2021/06/27 13:57:34;;;;;;;6.17;5.87;;;28.50;94.50;;;;;;4953608;29;20460;-67
2021/06/27 14:00:04;;;;;;;6.27;6.07;;;28.50;94.50;;;;;;4950124;29;20973;-67
2021/06/27 14:02:30;;;;;;;6.03;5.80;;;28.40;94.40;;;;;;4952043;28;20489;-67
2021/06/27 14:04:57;;;;;;;5.90;5.60;;;28.30;94.40;;;;;;4953709;28;20479;-67
2021/06/27 14:07:23;;;;;;;5.80;5.50;;;28.30;94.70;;;;;;4953384;29;20837;-66
2021/06/27 14:09:50;;;;;;;5.93;5.73;;;28.20;94.50;;;;;;4952843;29;20480;-66
2021/06/27 14:12:17;;;;;;;6.20;5.90;;;28.30;94.60;;;;;;4950691;28;20493;-66
2021/06/27 14:14:43;;;;;;;5.90;5.60;;;28.50;94.10;;;;;;4953753;29;20825;-66
2021/06/27 14:17:11;;;;;;;5.33;5.23;;;28.50;94.00;;;;;;4951090;29;20487;-68
2021/06/27 14:19:38;;;;;;;5.77;5.57;;;28.70;93.50;;;;;;4953929;29;20472;-66
2021/06/27 14:22:05;;;;;;;6.23;5.87;;;28.70;93.20;;;;;;4951597;28;20488;-66
2021/06/27 14:24:32;;;;;;;6.13;5.83;;;28.80;93.40;;;;;;4953244;29;20930;-66
2021/06/27 14:26:59;;;;;;;5.50;5.30;;;28.90;93.20;;;;;;4952890;28;20549;-67
2021/06/27 14:29:26;;;;;;;5.77;5.37;;;29.00;93.40;;;;;;4954261;29;20465;-66
2021/06/27 14:31:52;;;;;;;5.70;5.50;;;28.80;92.70;;;;;;4956710;28;20504;-66
2021/06/27 14:34:20;;;;;;;5.97;5.67;;;28.80;93.00;;;;;;4954008;29;20473;-67
2021/06/27 14:36:47;;;;;;;5.40;5.17;;;28.60;93.30;;;;;;4957493;29;20861;-66
2021/06/27 14:39:13;;;;;;;6.13;5.77;;;28.70;92.90;;;;;;4955925;29;20495;-66
2021/06/27 14:41:40;;;;;;;5.90;5.60;;;28.70;92.70;;;;;;4956320;28;20492;-66
2021/06/27 14:44:07;;;;;;;5.43;5.23;;;28.70;92.20;;;;;;4956199;29;20465;-66
2021/06/27 14:46:34;;;;;;;5.53;5.33;;;28.70;92.40;;;;;;4956377;29;20496;-66
2021/06/27 14:49:01;;;;;;;5.73;5.53;;;28.80;92.60;;;;;;4950548;29;20465;-67
2021/06/27 14:51:29;;;;;;;5.80;5.50;;;29.00;92.00;;;;;;4966765;28;20494;-69
2021/06/27 14:53:55;;;;;;;5.97;5.67;;;28.80;92.00;;;;;;4959426;29;20942;-69
2021/06/27 14:56:22;;;;;;;5.70;5.40;;;28.90;92.20;;;;;;4950398;29;20817;-69
2021/06/27 14:58:49;;;;;;;6.37;6.07;;;28.90;92.10;;;;;;4959968;29;20838;-67
2021/06/27 15:01:15;;;;;;;5.80;5.60;;;28.80;92.00;;;;;;4956378;28;20826;-67
2021/06/27 15:03:42;;;;;;;5.90;5.67;;;28.90;92.00;;;;;;4956574;29;20488;-67
2021/06/27 15:06:09;;;;;;;5.73;5.53;;;29.00;91.80;;;;;;4956409;29;20469;-67
2021/06/27 15:08:37;;;;;;;6.17;5.87;;;29.10;92.20;;;;;;4955874;29;20483;-67
2021/06/27 15:11:04;;;;;;;6.77;6.47;;;29.20;92.10;;;;;;4956436;28;20485;-68
2021/06/27 15:13:30;;;;;;;5.97;5.70;;;29.20;92.60;;;;;;4954207;29;20481;-67
2021/06/27 15:15:58;;;;;;;6.37;6.07;;;29.20;92.50;;;;;;4941983;29;20571;-67
2021/06/27 15:18:25;;;;;;;5.70;5.50;;;29.20;92.90;;;;;;4955385;29;20494;-67
2021/06/27 15:20:51;;;;;;;6.27;5.90;;;29.20;92.90;;;;;;4956727;28;20488;-68
2021/06/27 15:23:18;;;;;;;5.97;5.67;;;29.10;92.30;;;;;;4955781;29;20583;-67
2021/06/27 15:25:46;;;;;;;6.30;6.10;;;29.00;93.00;;;;;;4956008;29;20473;-67
2021/06/27 15:28:13;;;;;;;6.37;6.10;;;28.80;92.50;;;;;;4951423;29;20472;-69
2021/06/27 15:30:40;;;;;;;7.00;6.60;;;28.50;93.40;;;;;;4955974;28;20484;-68
2021/06/27 15:33:06;;;;;;;6.67;6.37;;;28.50;93.20;;;;;;4956231;29;20809;-69
2021/06/27 15:35:33;;;;;;;6.37;6.07;;;28.70;93.20;;;;;;4955902;29;20485;-70
2021/06/27 15:38:00;;;;;;;6.33;5.93;;;28.70;92.90;;;;;;4955967;29;20492;-69
2021/06/27 15:40:26;;;;;;;6.60;6.33;;;28.60;92.90;;;;;;4953735;28;20468;-69
2021/06/27 15:42:55;;;;;;;6.50;6.20;;;28.60;93.20;;;;;;4954034;29;20485;-69
2021/06/27 15:45:22;;;;;;;5.70;5.50;;;28.80;93.10;;;;;;4956342;29;20461;-69
2021/06/27 15:47:50;;;;;;;6.03;5.73;;;28.80;93.10;;;;;;4955792;29;20583;-69
2021/06/27 15:50:17;;;;;;;6.40;6.10;;;28.70;92.50;;;;;;4956598;28;20480;-67
2021/06/27 15:52:44;;;;;;;5.20;4.93;;;28.60;93.00;;;;;;4955044;29;20453;-67
2021/06/27 15:55:12;;;;;;;6.87;6.43;;;28.80;93.30;;;;;;4954294;29;20461;-67
2021/06/27 15:57:41;;;;;;;6.60;6.30;;;28.80;92.90;;;;;;4954785;29;20980;-67
2021/06/27 16:00:11;;;;;;;6.07;5.77;;;28.80;92.80;;;;;;4959087;28;20468;-69
2021/06/27 16:02:37;;;;;;;5.67;5.47;;;28.90;92.50;;;;;;4974259;28;20492;-69
2021/06/27 16:05:07;;;;;;;6.07;5.77;;;28.90;92.50;;;;;;4955741;29;20572;-69
2021/06/27 16:07:34;;;;;;;5.80;5.60;;;29.00;92.50;;;;;;4955736;29;20465;-69
2021/06/27 16:10:01;;;;;;;6.00;5.70;;;29.10;92.70;;;;;;4955254;29;20472;-69
2021/06/27 16:12:27;;;;;;;6.30;6.00;;;29.10;92.40;;;;;;4955106;28;20489;-69
2021/06/27 16:14:54;;;;;;;6.00;5.70;;;29.10;92.40;;;;;;4952956;29;20977;-69
2021/06/27 16:17:22;;;;;;;7.07;6.67;;;29.30;92.70;;;;;;4953008;29;20470;-69
2021/06/27 16:19:49;;;;;;;5.33;5.13;;;29.30;91.90;;;;;;4953738;29;20457;-69
2021/06/27 16:22:15;;;;;;;5.20;5.00;;;29.30;92.50;;;;;;4955089;28;20500;-69
2021/06/27 16:24:42;;;;;;;5.87;5.67;;;29.30;91.90;;;;;;4954745;29;20988;-69
2021/06/27 16:27:09;;;;;;;5.80;5.60;;;29.30;92.20;;;;;;4955507;29;20477;-69
2021/06/27 16:29:36;;;;;;;5.70;5.40;;;29.30;91.90;;;;;;4955316;29;20951;-68
2021/06/27 16:32:03;;;;;;;4.80;4.70;;;29.10;92.10;;;;;;4954587;28;20616;-67
2021/06/27 16:34:31;;;;;;;5.43;5.23;;;29.10;92.00;;;;;;4955520;29;20476;-69
2021/06/27 16:36:58;;;;;;;5.53;5.43;;;28.90;92.30;;;;;;4943205;29;20476;-68
2021/06/27 16:39:26;;;;;;;6.50;6.20;;;28.90;92.40;;;;;;4954815;29;20577;-67
2021/06/27 16:41:52;;;;;;;6.30;5.93;;;28.90;91.90;;;;;;4954821;28;20969;-67
2021/06/27 16:44:19;;;;;;;6.50;6.20;;;28.70;92.30;;;;;;4954384;29;20480;-68
2021/06/27 16:46:46;;;;;;;5.57;5.30;;;28.40;93.70;;;;;;4954813;29;20830;-68
2021/06/27 16:49:12;;;;;;;6.23;5.93;;;28.40;94.50;;;;;;4949553;29;20944;-69
2021/06/27 16:51:40;;;;;;;6.17;5.97;;;28.30;93.90;;;;;;4953128;28;20485;-68
2021/06/27 16:54:07;;;;;;;6.37;5.97;;;28.40;94.50;;;;;;4950789;29;20472;-67